sensor_id;sensor_type;location;lat;lon;timestamp;temperature;humidity
15666;DHT22;20725;51.196;3.510;2023-02-08T00:00:33;-2.30;88.80
15666;DHT22;20725;51.196;3.510;2023-02-08T00:03:00;-2.40;89.00
15666;DHT22;20725;51.196;3.510;2023-02-08T00:05:27;-2.40;89.80
15666;DHT22;20725;51.196;3.510;2023-02-08T00:07:53;-2.40;90.00
15666;DHT22;20725;51.196;3.510;2023-02-08T00:10:20;-2.50;90.40
15666;DHT22;20725;51.196;3.510;2023-02-08T00:12:49;-2.50;90.40
15666;DHT22;20725;51.196;3.510;2023-02-08T00:15:17;-2.50;90.40
15666;DHT22;20725;51.196;3.510;2023-02-08T00:17:44;-2.60;90.20
15666;DHT22;20725;51.196;3.510;2023-02-08T00:20:11;-2.60;90.20
15666;DHT22;20725;51.196;3.510;2023-02-08T00:22:38;-2.60;90.30
15666;DHT22;20725;51.196;3.510;2023-02-08T00:25:06;-2.60;92.00
15666;DHT22;20725;51.196;3.510;2023-02-08T00:27:33;-2.50;92.30
15666;DHT22;20725;51.196;3.510;2023-02-08T00:30:02;-2.50;91.80
15666;DHT22;20725;51.196;3.510;2023-02-08T00:32:29;-2.60;91.50
15666;DHT22;20725;51.196;3.510;2023-02-08T00:34:56;-2.70;91.30
15666;DHT22;20725;51.196;3.510;2023-02-08T00:37:23;-2.70;91.30
15666;DHT22;20725;51.196;3.510;2023-02-08T00:39:50;-2.70;90.80
15666;DHT22;20725;51.196;3.510;2023-02-08T00:42:17;-2.80;90.50
15666;DHT22;20725;51.196;3.510;2023-02-08T00:44:43;-2.70;91.20
15666;DHT22;20725;51.196;3.510;2023-02-08T00:47:12;-2.80;91.20
15666;DHT22;20725;51.196;3.510;2023-02-08T00:49:39;-2.80;91.10
15666;DHT22;20725;51.196;3.510;2023-02-08T00:52:06;-2.80;90.90
15666;DHT22;20725;51.196;3.510;2023-02-08T00:54:32;-2.80;90.80
15666;DHT22;20725;51.196;3.510;2023-02-08T00:56:59;-2.90;90.80
15666;DHT22;20725;51.196;3.510;2023-02-08T00:59:26;-2.90;90.70
15666;DHT22;20725;51.196;3.510;2023-02-08T01:01:57;-2.90;90.50
15666;DHT22;20725;51.196;3.510;2023-02-08T01:04:25;-2.90;90.80
15666;DHT22;20725;51.196;3.510;2023-02-08T01:06:52;-2.90;90.80
15666;DHT22;20725;51.196;3.510;2023-02-08T01:09:19;-2.90;91.10
15666;DHT22;20725;51.196;3.510;2023-02-08T01:11:45;-2.90;92.00
15666;DHT22;20725;51.196;3.510;2023-02-08T01:14:12;-2.90;91.40
15666;DHT22;20725;51.196;3.510;2023-02-08T01:16:39;-2.90;92.90
15666;DHT22;20725;51.196;3.510;2023-02-08T01:19:06;-2.80;92.60
15666;DHT22;20725;51.196;3.510;2023-02-08T01:21:36;-2.80;93.00
15666;DHT22;20725;51.196;3.510;2023-02-08T01:24:04;-2.80;92.70
15666;DHT22;20725;51.196;3.510;2023-02-08T01:26:32;-2.90;92.20
15666;DHT22;20725;51.196;3.510;2023-02-08T01:28:59;-2.90;91.80
15666;DHT22;20725;51.196;3.510;2023-02-08T01:31:28;-3.00;91.50
15666;DHT22;20725;51.196;3.510;2023-02-08T01:33:55;-3.00;91.30
15666;DHT22;20725;51.196;3.510;2023-02-08T01:36:23;-3.00;91.30
15666;DHT22;20725;51.196;3.510;2023-02-08T01:38:52;-3.10;91.20
15666;DHT22;20725;51.196;3.510;2023-02-08T01:41:20;-3.10;91.20
15666;DHT22;20725;51.196;3.510;2023-02-08T01:44:06;-3.10;91.20
15666;DHT22;20725;51.196;3.510;2023-02-08T01:46:35;-3.10;91.30
15666;DHT22;20725;51.196;3.510;2023-02-08T01:49:07;-3.10;91.20
15666;DHT22;20725;51.196;3.510;2023-02-08T01:51:37;-3.10;91.10
15666;DHT22;20725;51.196;3.510;2023-02-08T01:54:08;-3.20;91.00
15666;DHT22;20725;51.196;3.510;2023-02-08T01:56:38;-3.20;90.80
15666;DHT22;20725;51.196;3.510;2023-02-08T01:59:11;-3.20;91.00
15666;DHT22;20725;51.196;3.510;2023-02-08T02:01:39;-3.20;91.00
15666;DHT22;20725;51.196;3.510;2023-02-08T02:04:08;-3.30;90.90
15666;DHT22;20725;51.196;3.510;2023-02-08T02:06:37;-3.30;91.00
15666;DHT22;20725;51.196;3.510;2023-02-08T02:09:11;-3.30;91.10
15666;DHT22;20725;51.196;3.510;2023-02-08T02:11:39;-3.30;91.30
15666;DHT22;20725;51.196;3.510;2023-02-08T02:14:07;-3.30;91.30
15666;DHT22;20725;51.196;3.510;2023-02-08T02:16:34;-3.30;91.10
15666;DHT22;20725;51.196;3.510;2023-02-08T02:19:01;-3.30;91.10
15666;DHT22;20725;51.196;3.510;2023-02-08T02:21:45;-3.30;91.10
15666;DHT22;20725;51.196;3.510;2023-02-08T02:27:35;-3.30;91.20
15666;DHT22;20725;51.196;3.510;2023-02-08T02:30:54;-3.30;91.10
15666;DHT22;20725;51.196;3.510;2023-02-08T02:33:36;-3.40;91.20
15666;DHT22;20725;51.196;3.510;2023-02-08T02:36:14;-3.30;91.40
15666;DHT22;20725;51.196;3.510;2023-02-08T02:38:49;-3.40;91.20
15666;DHT22;20725;51.196;3.510;2023-02-08T02:41:24;-3.40;91.10
15666;DHT22;20725;51.196;3.510;2023-02-08T02:44:22;-3.30;91.60
15666;DHT22;20725;51.196;3.510;2023-02-08T02:46:57;-3.40;91.30
15666;DHT22;20725;51.196;3.510;2023-02-08T02:49:31;-3.40;91.20
15666;DHT22;20725;51.196;3.510;2023-02-08T02:52:03;-3.40;91.70
15666;DHT22;20725;51.196;3.510;2023-02-08T02:54:33;-3.40;91.40
15666;DHT22;20725;51.196;3.510;2023-02-08T02:57:04;-3.40;91.30
15666;DHT22;20725;51.196;3.510;2023-02-08T02:59:33;-3.40;91.30
15666;DHT22;20725;51.196;3.510;2023-02-08T03:02:00;-3.40;91.30
15666;DHT22;20725;51.196;3.510;2023-02-08T03:04:50;-3.40;91.20
15666;DHT22;20725;51.196;3.510;2023-02-08T03:07:32;-3.40;91.40
15666;DHT22;20725;51.196;3.510;2023-02-08T03:10:11;-3.40;91.20
15666;DHT22;20725;51.196;3.510;2023-02-08T03:12:46;-3.50;91.20
15666;DHT22;20725;51.196;3.510;2023-02-08T03:15:25;-3.50;91.30
15666;DHT22;20725;51.196;3.510;2023-02-08T03:18:04;-3.50;91.60
15666;DHT22;20725;51.196;3.510;2023-02-08T03:20:37;-3.40;91.90
15666;DHT22;20725;51.196;3.510;2023-02-08T03:23:08;-3.50;91.70
15666;DHT22;20725;51.196;3.510;2023-02-08T03:25:48;-3.50;91.60
15666;DHT22;20725;51.196;3.510;2023-02-08T03:28:20;-3.50;91.70
15666;DHT22;20725;51.196;3.510;2023-02-08T03:30:52;-3.50;91.50
15666;DHT22;20725;51.196;3.510;2023-02-08T03:33:26;-3.60;91.30
15666;DHT22;20725;51.196;3.510;2023-02-08T03:36:00;-3.60;91.30
15666;DHT22;20725;51.196;3.510;2023-02-08T03:38:30;-3.60;91.20
15666;DHT22;20725;51.196;3.510;2023-02-08T03:41:01;-3.60;91.10
15666;DHT22;20725;51.196;3.510;2023-02-08T03:43:33;-3.60;91.10
15666;DHT22;20725;51.196;3.510;2023-02-08T03:46:05;-3.70;90.80
15666;DHT22;20725;51.196;3.510;2023-02-08T03:48:34;-3.70;90.90
15666;DHT22;20725;51.196;3.510;2023-02-08T03:51:05;-3.60;91.10
15666;DHT22;20725;51.196;3.510;2023-02-08T03:53:34;-3.70;91.00
15666;DHT22;20725;51.196;3.510;2023-02-08T03:56:09;-3.70;91.10
15666;DHT22;20725;51.196;3.510;2023-02-08T03:58:42;-3.70;91.00
15666;DHT22;20725;51.196;3.510;2023-02-08T04:01:14;-3.70;90.90
15666;DHT22;20725;51.196;3.510;2023-02-08T04:03:42;-3.70;91.00
15666;DHT22;20725;51.196;3.510;2023-02-08T04:06:11;-3.70;91.00
15666;DHT22;20725;51.196;3.510;2023-02-08T04:08:38;-3.70;91.00
15666;DHT22;20725;51.196;3.510;2023-02-08T04:11:05;-3.70;91.30
15666;DHT22;20725;51.196;3.510;2023-02-08T04:13:32;-3.80;91.10
15666;DHT22;20725;51.196;3.510;2023-02-08T04:15:59;-3.70;91.30
15666;DHT22;20725;51.196;3.510;2023-02-08T04:18:26;-3.70;91.30
15666;DHT22;20725;51.196;3.510;2023-02-08T04:20:53;-3.70;91.20
15666;DHT22;20725;51.196;3.510;2023-02-08T04:23:21;-3.70;91.10
15666;DHT22;20725;51.196;3.510;2023-02-08T04:25:48;-3.80;91.10
15666;DHT22;20725;51.196;3.510;2023-02-08T04:28:15;-3.80;91.20
15666;DHT22;20725;51.196;3.510;2023-02-08T04:30:41;-3.70;91.00
15666;DHT22;20725;51.196;3.510;2023-02-08T04:33:08;-3.70;91.20
15666;DHT22;20725;51.196;3.510;2023-02-08T04:35:37;-3.70;91.20
15666;DHT22;20725;51.196;3.510;2023-02-08T04:38:04;-3.60;91.40
15666;DHT22;20725;51.196;3.510;2023-02-08T04:40:32;-3.60;91.90
15666;DHT22;20725;51.196;3.510;2023-02-08T04:42:59;-3.60;92.60
15666;DHT22;20725;51.196;3.510;2023-02-08T04:45:27;-3.50;92.60
15666;DHT22;20725;51.196;3.510;2023-02-08T04:47:54;-3.60;92.30
15666;DHT22;20725;51.196;3.510;2023-02-08T04:50:21;-3.60;92.00
15666;DHT22;20725;51.196;3.510;2023-02-08T04:52:48;-3.60;91.80
15666;DHT22;20725;51.196;3.510;2023-02-08T04:55:15;-3.60;91.50
15666;DHT22;20725;51.196;3.510;2023-02-08T04:57:43;-3.60;91.50
15666;DHT22;20725;51.196;3.510;2023-02-08T05:00:11;-3.60;91.30
15666;DHT22;20725;51.196;3.510;2023-02-08T05:02:38;-3.70;91.20
15666;DHT22;20725;51.196;3.510;2023-02-08T05:05:05;-3.70;91.30
15666;DHT22;20725;51.196;3.510;2023-02-08T05:07:32;-3.80;92.50
15666;DHT22;20725;51.196;3.510;2023-02-08T05:09:59;-3.80;92.70
15666;DHT22;20725;51.196;3.510;2023-02-08T05:12:26;-3.80;92.20
15666;DHT22;20725;51.196;3.510;2023-02-08T05:14:54;-3.90;92.00
15666;DHT22;20725;51.196;3.510;2023-02-08T05:17:21;-3.90;91.80
15666;DHT22;20725;51.196;3.510;2023-02-08T05:19:48;-3.90;91.90
15666;DHT22;20725;51.196;3.510;2023-02-08T05:22:15;-3.90;91.80
15666;DHT22;20725;51.196;3.510;2023-02-08T05:24:42;-4.00;91.50
15666;DHT22;20725;51.196;3.510;2023-02-08T05:27:09;-4.00;91.80
15666;DHT22;20725;51.196;3.510;2023-02-08T05:29:36;-4.00;91.80
15666;DHT22;20725;51.196;3.510;2023-02-08T05:32:04;-4.00;91.60
15666;DHT22;20725;51.196;3.510;2023-02-08T05:34:31;-4.10;91.50
15666;DHT22;20725;51.196;3.510;2023-02-08T05:36:58;-4.10;91.50
15666;DHT22;20725;51.196;3.510;2023-02-08T05:39:25;-4.10;91.50
15666;DHT22;20725;51.196;3.510;2023-02-08T05:41:51;-4.10;91.70
15666;DHT22;20725;51.196;3.510;2023-02-08T05:44:18;-4.10;91.90
15666;DHT22;20725;51.196;3.510;2023-02-08T05:46:45;-4.10;91.80
15666;DHT22;20725;51.196;3.510;2023-02-08T05:49:14;-4.10;93.20
15666;DHT22;20725;51.196;3.510;2023-02-08T05:51:40;-4.10;93.90
15666;DHT22;20725;51.196;3.510;2023-02-08T05:54:07;-4.10;94.70
15666;DHT22;20725;51.196;3.510;2023-02-08T05:56:34;-4.10;94.60
15666;DHT22;20725;51.196;3.510;2023-02-08T05:59:02;-4.10;94.10
15666;DHT22;20725;51.196;3.510;2023-02-08T06:01:29;-4.10;93.80
15666;DHT22;20725;51.196;3.510;2023-02-08T06:03:57;-4.10;93.20
15666;DHT22;20725;51.196;3.510;2023-02-08T06:06:26;-4.10;93.00
15666;DHT22;20725;51.196;3.510;2023-02-08T06:08:53;-4.10;92.80
15666;DHT22;20725;51.196;3.510;2023-02-08T06:11:20;-4.20;92.50
15666;DHT22;20725;51.196;3.510;2023-02-08T06:13:47;-4.10;93.10
15666;DHT22;20725;51.196;3.510;2023-02-08T06:16:14;-4.20;94.10
15666;DHT22;20725;51.196;3.510;2023-02-08T06:18:41;-4.10;94.70
15666;DHT22;20725;51.196;3.510;2023-02-08T06:21:08;-4.20;94.30
15666;DHT22;20725;51.196;3.510;2023-02-08T06:23:38;-4.20;93.90
15666;DHT22;20725;51.196;3.510;2023-02-08T06:26:06;-4.20;93.50
15666;DHT22;20725;51.196;3.510;2023-02-08T06:28:33;-4.20;94.20
15666;DHT22;20725;51.196;3.510;2023-02-08T06:31:00;-4.10;95.20
15666;DHT22;20725;51.196;3.510;2023-02-08T06:33:27;-4.20;95.80
15666;DHT22;20725;51.196;3.510;2023-02-08T06:35:54;-4.10;95.40
15666;DHT22;20725;51.196;3.510;2023-02-08T06:38:21;-4.10;95.10
15666;DHT22;20725;51.196;3.510;2023-02-08T06:40:49;-4.10;95.10
15666;DHT22;20725;51.196;3.510;2023-02-08T06:43:16;-4.10;94.70
15666;DHT22;20725;51.196;3.510;2023-02-08T06:45:44;-4.10;94.20
15666;DHT22;20725;51.196;3.510;2023-02-08T06:48:11;-4.10;93.90
15666;DHT22;20725;51.196;3.510;2023-02-08T06:50:37;-4.20;93.70
15666;DHT22;20725;51.196;3.510;2023-02-08T06:53:04;-4.20;93.70
15666;DHT22;20725;51.196;3.510;2023-02-08T06:55:31;-4.10;94.80
15666;DHT22;20725;51.196;3.510;2023-02-08T06:58:00;-4.10;95.20
15666;DHT22;20725;51.196;3.510;2023-02-08T07:00:26;-4.10;95.50
15666;DHT22;20725;51.196;3.510;2023-02-08T07:02:53;-4.10;95.60
15666;DHT22;20725;51.196;3.510;2023-02-08T07:05:20;-4.00;96.10
15666;DHT22;20725;51.196;3.510;2023-02-08T07:07:47;-4.00;95.60
15666;DHT22;20725;51.196;3.510;2023-02-08T07:10:14;-4.00;95.90
15666;DHT22;20725;51.196;3.510;2023-02-08T07:12:41;-4.00;96.20
15666;DHT22;20725;51.196;3.510;2023-02-08T07:15:10;-4.00;96.30
15666;DHT22;20725;51.196;3.510;2023-02-08T07:17:38;-3.90;96.00
15666;DHT22;20725;51.196;3.510;2023-02-08T07:20:05;-3.90;96.20
15666;DHT22;20725;51.196;3.510;2023-02-08T07:22:33;-3.90;96.60
15666;DHT22;20725;51.196;3.510;2023-02-08T07:24:59;-3.90;96.60
15666;DHT22;20725;51.196;3.510;2023-02-08T07:27:26;-3.80;96.60
15666;DHT22;20725;51.196;3.510;2023-02-08T07:29:53;-3.80;96.70
15666;DHT22;20725;51.196;3.510;2023-02-08T07:32:21;-3.80;96.50
15666;DHT22;20725;51.196;3.510;2023-02-08T07:34:48;-3.70;96.30
15666;DHT22;20725;51.196;3.510;2023-02-08T07:37:15;-3.60;96.10
15666;DHT22;20725;51.196;3.510;2023-02-08T07:39:42;-3.50;95.70
15666;DHT22;20725;51.196;3.510;2023-02-08T07:42:09;-3.50;96.00
15666;DHT22;20725;51.196;3.510;2023-02-08T07:44:36;-3.40;96.00
15666;DHT22;20725;51.196;3.510;2023-02-08T07:47:03;-3.30;95.80
15666;DHT22;20725;51.196;3.510;2023-02-08T07:49:32;-3.20;95.40
15666;DHT22;20725;51.196;3.510;2023-02-08T07:51:59;-3.10;95.20
15666;DHT22;20725;51.196;3.510;2023-02-08T07:54:26;-3.00;94.70
15666;DHT22;20725;51.196;3.510;2023-02-08T07:56:52;-2.90;95.10
15666;DHT22;20725;51.196;3.510;2023-02-08T07:59:19;-2.90;95.10
15666;DHT22;20725;51.196;3.510;2023-02-08T08:01:46;-2.80;94.80
15666;DHT22;20725;51.196;3.510;2023-02-08T08:04:13;-2.70;94.60
15666;DHT22;20725;51.196;3.510;2023-02-08T08:06:42;-2.50;94.10
15666;DHT22;20725;51.196;3.510;2023-02-08T08:09:11;-2.40;93.70
15666;DHT22;20725;51.196;3.510;2023-02-08T08:11:39;-2.20;93.60
15666;DHT22;20725;51.196;3.510;2023-02-08T08:14:06;-1.80;93.50
15666;DHT22;20725;51.196;3.510;2023-02-08T08:16:33;-0.90;93.00
15666;DHT22;20725;51.196;3.510;2023-02-08T08:19:00;0.30;92.20
15666;DHT22;20725;51.196;3.510;2023-02-08T08:21:27;1.40;91.10
15666;DHT22;20725;51.196;3.510;2023-02-08T08:23:55;2.10;90.20
15666;DHT22;20725;51.196;3.510;2023-02-08T08:26:22;2.80;89.00
15666;DHT22;20725;51.196;3.510;2023-02-08T08:28:49;3.20;86.00
15666;DHT22;20725;51.196;3.510;2023-02-08T08:31:18;3.30;81.90
15666;DHT22;20725;51.196;3.510;2023-02-08T08:33:46;3.40;80.90
15666;DHT22;20725;51.196;3.510;2023-02-08T08:36:13;4.70;81.70
15666;DHT22;20725;51.196;3.510;2023-02-08T08:38:40;5.30;81.70
15666;DHT22;20725;51.196;3.510;2023-02-08T08:41:11;6.10;80.00
15666;DHT22;20725;51.196;3.510;2023-02-08T08:43:39;7.10;77.30
15666;DHT22;20725;51.196;3.510;2023-02-08T08:46:07;8.00;76.40
15666;DHT22;20725;51.196;3.510;2023-02-08T08:48:35;8.60;72.50
15666;DHT22;20725;51.196;3.510;2023-02-08T08:51:03;9.10;70.40
15666;DHT22;20725;51.196;3.510;2023-02-08T08:53:30;9.90;69.40
15666;DHT22;20725;51.196;3.510;2023-02-08T08:55:57;10.90;67.50
15666;DHT22;20725;51.196;3.510;2023-02-08T08:58:25;11.90;65.40
15666;DHT22;20725;51.196;3.510;2023-02-08T09:00:53;13.60;62.90
15666;DHT22;20725;51.196;3.510;2023-02-08T09:03:21;14.70;55.40
15666;DHT22;20725;51.196;3.510;2023-02-08T09:05:48;15.30;48.50
15666;DHT22;20725;51.196;3.510;2023-02-08T09:08:16;16.20;47.00
15666;DHT22;20725;51.196;3.510;2023-02-08T09:10:43;17.60;44.60
15666;DHT22;20725;51.196;3.510;2023-02-08T09:13:10;18.90;40.80
15666;DHT22;20725;51.196;3.510;2023-02-08T09:15:45;19.60;38.90
15666;DHT22;20725;51.196;3.510;2023-02-08T09:18:13;20.70;36.20
15666;DHT22;20725;51.196;3.510;2023-02-08T09:20:40;19.50;33.10
15666;DHT22;20725;51.196;3.510;2023-02-08T09:23:07;19.70;32.50
15666;DHT22;20725;51.196;3.510;2023-02-08T09:25:35;20.00;32.40
15666;DHT22;20725;51.196;3.510;2023-02-08T09:28:02;20.50;31.00
15666;DHT22;20725;51.196;3.510;2023-02-08T09:30:29;20.70;29.80
15666;DHT22;20725;51.196;3.510;2023-02-08T09:32:58;20.60;28.30
15666;DHT22;20725;51.196;3.510;2023-02-08T09:35:25;21.60;28.50
15666;DHT22;20725;51.196;3.510;2023-02-08T09:37:53;22.20;27.90
15666;DHT22;20725;51.196;3.510;2023-02-08T09:40:24;23.30;25.90
15666;DHT22;20725;51.196;3.510;2023-02-08T09:42:58;23.10;24.70
15666;DHT22;20725;51.196;3.510;2023-02-08T09:45:36;23.60;25.20
15666;DHT22;20725;51.196;3.510;2023-02-08T09:48:15;24.50;24.00
15666;DHT22;20725;51.196;3.510;2023-02-08T09:50:47;23.10;23.30
15666;DHT22;20725;51.196;3.510;2023-02-08T09:53:18;23.60;23.90
15666;DHT22;20725;51.196;3.510;2023-02-08T09:55:49;23.00;22.10
15666;DHT22;20725;51.196;3.510;2023-02-08T09:58:22;22.80;23.50
15666;DHT22;20725;51.196;3.510;2023-02-08T10:00:50;21.70;22.40
15666;DHT22;20725;51.196;3.510;2023-02-08T10:03:30;21.40;22.80
15666;DHT22;20725;51.196;3.510;2023-02-08T10:05:58;21.50;25.40
15666;DHT22;20725;51.196;3.510;2023-02-08T10:08:26;20.70;24.50
15666;DHT22;20725;51.196;3.510;2023-02-08T10:10:55;19.90;24.70
15666;DHT22;20725;51.196;3.510;2023-02-08T10:13:45;21.00;23.50
15666;DHT22;20725;51.196;3.510;2023-02-08T10:16:24;22.10;22.50
15666;DHT22;20725;51.196;3.510;2023-02-08T10:19:03;22.00;22.90
15666;DHT22;20725;51.196;3.510;2023-02-08T10:21:44;22.10;21.70
15666;DHT22;20725;51.196;3.510;2023-02-08T10:24:33;20.60;21.70
15666;DHT22;20725;51.196;3.510;2023-02-08T10:27:11;20.60;21.50
15666;DHT22;20725;51.196;3.510;2023-02-08T10:29:58;20.40;22.70
15666;DHT22;20725;51.196;3.510;2023-02-08T10:32:42;21.30;20.90
15666;DHT22;20725;51.196;3.510;2023-02-08T10:35:13;22.20;19.60
15666;DHT22;20725;51.196;3.510;2023-02-08T10:37:41;23.00;20.80
15666;DHT22;20725;51.196;3.510;2023-02-08T10:40:23;22.60;20.70
15666;DHT22;20725;51.196;3.510;2023-02-08T10:42:54;22.50;19.30
15666;DHT22;20725;51.196;3.510;2023-02-08T10:45:26;21.40;21.60
15666;DHT22;20725;51.196;3.510;2023-02-08T10:47:57;23.20;21.70
15666;DHT22;20725;51.196;3.510;2023-02-08T10:50:33;23.00;21.00
15666;DHT22;20725;51.196;3.510;2023-02-08T10:53:13;23.40;18.30
15666;DHT22;20725;51.196;3.510;2023-02-08T10:55:42;22.50;19.30
15666;DHT22;20725;51.196;3.510;2023-02-08T10:58:15;23.80;18.50
15666;DHT22;20725;51.196;3.510;2023-02-08T11:00:43;25.00;18.00
15666;DHT22;20725;51.196;3.510;2023-02-08T11:03:17;26.30;18.00
15666;DHT22;20725;51.196;3.510;2023-02-08T11:05:48;27.40;17.10
15666;DHT22;20725;51.196;3.510;2023-02-08T11:08:16;28.40;15.40
15666;DHT22;20725;51.196;3.510;2023-02-08T11:10:54;29.50;15.50
15666;DHT22;20725;51.196;3.510;2023-02-08T11:13:22;29.20;14.30
15666;DHT22;20725;51.196;3.510;2023-02-08T11:15:52;29.80;14.00
15666;DHT22;20725;51.196;3.510;2023-02-08T11:18:23;30.30;13.20
15666;DHT22;20725;51.196;3.510;2023-02-08T11:20:55;31.00;13.30
15666;DHT22;20725;51.196;3.510;2023-02-08T11:23:25;32.40;13.00
15666;DHT22;20725;51.196;3.510;2023-02-08T11:25:53;33.60;12.60
15666;DHT22;20725;51.196;3.510;2023-02-08T11:28:25;34.30;11.90
15666;DHT22;20725;51.196;3.510;2023-02-08T11:30:58;33.50;10.90
15666;DHT22;20725;51.196;3.510;2023-02-08T11:33:26;35.00;10.20
15666;DHT22;20725;51.196;3.510;2023-02-08T11:35:58;34.20;10.30
15666;DHT22;20725;51.196;3.510;2023-02-08T11:38:27;33.10;9.50
15666;DHT22;20725;51.196;3.510;2023-02-08T11:40:55;33.80;10.80
15666;DHT22;20725;51.196;3.510;2023-02-08T11:43:25;35.40;9.90
15666;DHT22;20725;51.196;3.510;2023-02-08T11:45:54;34.50;8.60
15666;DHT22;20725;51.196;3.510;2023-02-08T11:48:24;35.80;9.50
15666;DHT22;20725;51.196;3.510;2023-02-08T11:50:56;36.70;8.40
15666;DHT22;20725;51.196;3.510;2023-02-08T11:53:27;37.80;8.50
15666;DHT22;20725;51.196;3.510;2023-02-08T11:56:13;35.60;6.80
15666;DHT22;20725;51.196;3.510;2023-02-08T11:58:41;33.90;8.00
15666;DHT22;20725;51.196;3.510;2023-02-08T12:01:18;34.50;9.00
15666;DHT22;20725;51.196;3.510;2023-02-08T12:03:46;36.40;8.10
15666;DHT22;20725;51.196;3.510;2023-02-08T12:09:27;37.30;7.10
15666;DHT22;20725;51.196;3.510;2023-02-08T12:12:03;36.90;6.10
15666;DHT22;20725;51.196;3.510;2023-02-08T12:14:44;34.00;7.50
15666;DHT22;20725;51.196;3.510;2023-02-08T12:20:23;31.80;8.90
15666;DHT22;20725;51.196;3.510;2023-02-08T12:23:09;32.50;9.40
15666;DHT22;20725;51.196;3.510;2023-02-08T12:25:44;34.60;8.80
15666;DHT22;20725;51.196;3.510;2023-02-08T12:28:21;36.10;7.80
15666;DHT22;20725;51.196;3.510;2023-02-08T12:30:57;33.50;6.90
15666;DHT22;20725;51.196;3.510;2023-02-08T12:33:37;34.00;8.00
15666;DHT22;20725;51.196;3.510;2023-02-08T12:39:21;34.90;7.70
15666;DHT22;20725;51.196;3.510;2023-02-08T12:42:26;37.40;7.40
15666;DHT22;20725;51.196;3.510;2023-02-08T12:45:24;37.70;6.60
15666;DHT22;20725;51.196;3.510;2023-02-08T12:48:04;39.00;6.80
15666;DHT22;20725;51.196;3.510;2023-02-08T12:50:42;39.90;6.80
15666;DHT22;20725;51.196;3.510;2023-02-08T12:53:16;39.00;6.10
15666;DHT22;20725;51.196;3.510;2023-02-08T12:55:47;39.50;6.00
15666;DHT22;20725;51.196;3.510;2023-02-08T12:58:27;39.70;7.00
15666;DHT22;20725;51.196;3.510;2023-02-08T13:00:56;39.40;5.40
15666;DHT22;20725;51.196;3.510;2023-02-08T13:03:34;40.00;6.30
15666;DHT22;20725;51.196;3.510;2023-02-08T13:06:07;41.20;5.90
15666;DHT22;20725;51.196;3.510;2023-02-08T13:08:42;41.70;5.80
15666;DHT22;20725;51.196;3.510;2023-02-08T13:11:19;41.20;5.30
15666;DHT22;20725;51.196;3.510;2023-02-08T13:13:56;40.90;4.10
15666;DHT22;20725;51.196;3.510;2023-02-08T13:16:27;40.20;3.80
15666;DHT22;20725;51.196;3.510;2023-02-08T13:19:22;39.10;4.80
15666;DHT22;20725;51.196;3.510;2023-02-08T13:21:52;39.90;4.80
15666;DHT22;20725;51.196;3.510;2023-02-08T13:24:32;38.50;4.70
15666;DHT22;20725;51.196;3.510;2023-02-08T13:27:02;39.90;4.10
15666;DHT22;20725;51.196;3.510;2023-02-08T13:29:32;39.50;4.60
15666;DHT22;20725;51.196;3.510;2023-02-08T13:32:02;40.70;4.50
15666;DHT22;20725;51.196;3.510;2023-02-08T13:34:35;41.50;4.20
15666;DHT22;20725;51.196;3.510;2023-02-08T13:37:16;41.70;3.20
15666;DHT22;20725;51.196;3.510;2023-02-08T13:39:44;41.30;3.30
15666;DHT22;20725;51.196;3.510;2023-02-08T13:42:21;41.30;3.50
15666;DHT22;20725;51.196;3.510;2023-02-08T13:44:51;41.30;3.80
15666;DHT22;20725;51.196;3.510;2023-02-08T13:47:24;40.70;3.80
15666;DHT22;20725;51.196;3.510;2023-02-08T13:49:55;41.00;4.10
15666;DHT22;20725;51.196;3.510;2023-02-08T13:52:47;41.40;3.60
15666;DHT22;20725;51.196;3.510;2023-02-08T13:55:52;41.50;2.70
15666;DHT22;20725;51.196;3.510;2023-02-08T14:01:32;38.90;1.40
15666;DHT22;20725;51.196;3.510;2023-02-08T14:04:28;36.00;3.30
15666;DHT22;20725;51.196;3.510;2023-02-08T14:09:47;32.60;3.90
15666;DHT22;20725;51.196;3.510;2023-02-08T14:12:22;33.00;4.20
15666;DHT22;20725;51.196;3.510;2023-02-08T14:15:05;33.60;4.50
15666;DHT22;20725;51.196;3.510;2023-02-08T14:17:35;32.70;4.10
15666;DHT22;20725;51.196;3.510;2023-02-08T14:20:19;33.00;4.50
15666;DHT22;20725;51.196;3.510;2023-02-08T14:22:51;35.50;2.70
15666;DHT22;20725;51.196;3.510;2023-02-08T14:25:21;33.60;3.30
15666;DHT22;20725;51.196;3.510;2023-02-08T14:27:51;32.40;3.90
15666;DHT22;20725;51.196;3.510;2023-02-08T14:30:24;32.10;4.30
15666;DHT22;20725;51.196;3.510;2023-02-08T14:33:17;34.10;4.30
15666;DHT22;20725;51.196;3.510;2023-02-08T14:35:52;35.90;3.90
15666;DHT22;20725;51.196;3.510;2023-02-08T14:41:43;35.30;3.00
15666;DHT22;20725;51.196;3.510;2023-02-08T14:47:51;35.30;3.00
15666;DHT22;20725;51.196;3.510;2023-02-08T14:50:25;34.00;3.60
15666;DHT22;20725;51.196;3.510;2023-02-08T14:55:43;35.00;4.20
15666;DHT22;20725;51.196;3.510;2023-02-08T14:58:14;34.50;4.20
15666;DHT22;20725;51.196;3.510;2023-02-08T15:00:50;33.80;4.10
15666;DHT22;20725;51.196;3.510;2023-02-08T15:03:19;31.70;4.40
15666;DHT22;20725;51.196;3.510;2023-02-08T15:06:16;30.10;4.60
15666;DHT22;20725;51.196;3.510;2023-02-08T15:08:52;28.60;5.80
15666;DHT22;20725;51.196;3.510;2023-02-08T15:11:22;27.70;6.40
15666;DHT22;20725;51.196;3.510;2023-02-08T15:13:53;26.90;6.80
15666;DHT22;20725;51.196;3.510;2023-02-08T15:16:21;28.10;6.80
15666;DHT22;20725;51.196;3.510;2023-02-08T15:18:50;27.80;6.80
15666;DHT22;20725;51.196;3.510;2023-02-08T15:21:28;28.00;6.60
15666;DHT22;20725;51.196;3.510;2023-02-08T15:24:04;28.00;6.60
15666;DHT22;20725;51.196;3.510;2023-02-08T15:26:33;28.60;6.70
15666;DHT22;20725;51.196;3.510;2023-02-08T15:29:01;29.00;6.20
15666;DHT22;20725;51.196;3.510;2023-02-08T15:31:31;29.00;6.20
15666;DHT22;20725;51.196;3.510;2023-02-08T15:34:00;28.40;6.40
15666;DHT22;20725;51.196;3.510;2023-02-08T15:36:33;28.90;6.50
15666;DHT22;20725;51.196;3.510;2023-02-08T15:39:02;24.10;7.80
15666;DHT22;20725;51.196;3.510;2023-02-08T15:41:31;20.00;10.80
15666;DHT22;20725;51.196;3.510;2023-02-08T15:44:13;16.70;14.20
15666;DHT22;20725;51.196;3.510;2023-02-08T15:46:44;15.00;16.30
15666;DHT22;20725;51.196;3.510;2023-02-08T15:49:13;13.90;17.50
15666;DHT22;20725;51.196;3.510;2023-02-08T15:51:43;12.80;19.10
15666;DHT22;20725;51.196;3.510;2023-02-08T15:54:15;12.00;19.30
15666;DHT22;20725;51.196;3.510;2023-02-08T15:56:49;11.40;20.70
15666;DHT22;20725;51.196;3.510;2023-02-08T15:59:21;11.20;20.10
15666;DHT22;20725;51.196;3.510;2023-02-08T16:01:50;11.00;20.80
15666;DHT22;20725;51.196;3.510;2023-02-08T16:04:18;10.40;21.90
15666;DHT22;20725;51.196;3.510;2023-02-08T16:06:49;10.10;22.00
15666;DHT22;20725;51.196;3.510;2023-02-08T16:09:19;9.90;22.60
15666;DHT22;20725;51.196;3.510;2023-02-08T16:11:49;9.40;23.70
15666;DHT22;20725;51.196;3.510;2023-02-08T16:14:19;9.20;24.00
15666;DHT22;20725;51.196;3.510;2023-02-08T16:16:50;9.00;23.60
15666;DHT22;20725;51.196;3.510;2023-02-08T16:19:23;8.90;25.20
15666;DHT22;20725;51.196;3.510;2023-02-08T16:21:53;8.60;25.20
15666;DHT22;20725;51.196;3.510;2023-02-08T16:24:23;8.40;25.10
15666;DHT22;20725;51.196;3.510;2023-02-08T16:27:01;8.40;26.10